createdAt,value
2023-07-04T00:01:12.919Z,19.46
2023-07-04T00:03:15.918Z,19.39
2023-07-04T00:05:19.256Z,19.32
2023-07-04T00:07:22.475Z,19.22
2023-07-04T00:09:25.331Z,19.20
2023-07-04T00:11:29.863Z,19.17
2023-07-04T00:13:33.709Z,19.18
2023-07-04T00:15:36.645Z,19.09
2023-07-04T00:17:40.976Z,19.12
2023-07-04T00:19:43.797Z,19.11
2023-07-04T00:21:46.696Z,19.08
2023-07-04T00:23:54.149Z,19.14
2023-07-04T00:25:58.362Z,19.15
2023-07-04T00:28:06.233Z,19.07
2023-07-04T00:30:11.612Z,19.09
2023-07-04T00:32:16.133Z,19.10
2023-07-04T00:34:21.416Z,19.00
2023-07-04T00:36:24.769Z,19.05
2023-07-04T00:38:28.615Z,19.05
2023-07-04T00:40:31.510Z,19.00
2023-07-04T00:42:37.042Z,19.02
2023-07-04T00:44:46.002Z,19.06
2023-07-04T00:46:55.659Z,18.88
2023-07-04T00:49:01.826Z,18.86
2023-07-04T00:51:06.085Z,18.83
2023-07-04T00:53:13.139Z,18.92
2023-07-04T00:55:16.302Z,18.80
2023-07-04T00:57:21.426Z,18.78
2023-07-04T00:59:24.890Z,18.77
2023-07-04T01:01:28.198Z,18.73
2023-07-04T01:03:31.202Z,18.76
2023-07-04T01:05:41.707Z,18.83
2023-07-04T01:07:52.499Z,18.72
2023-07-04T01:10:00.317Z,18.71
2023-07-04T01:12:05.364Z,18.67
2023-07-04T01:14:19.987Z,18.56
2023-07-04T01:16:23.640Z,18.65
2023-07-04T01:18:26.550Z,18.53
2023-07-04T01:20:29.614Z,18.55
2023-07-04T01:22:38.298Z,18.51
2023-07-04T01:24:56.008Z,18.53
2023-07-04T01:27:00.985Z,18.57
2023-07-04T01:29:06.360Z,18.52
2023-07-04T01:31:09.692Z,18.49
2023-07-04T01:33:14.477Z,18.55
2023-07-04T01:35:19.165Z,18.47
2023-07-04T01:37:22.096Z,18.48
2023-07-04T01:39:26.801Z,18.48
2023-07-04T01:41:30.475Z,18.53
2023-07-04T01:43:34.716Z,18.39
2023-07-04T01:45:37.606Z,18.35
2023-07-04T01:47:41.099Z,18.39
2023-07-04T01:49:44.179Z,18.36
2023-07-04T01:51:47.192Z,18.44
2023-07-04T01:53:50.667Z,18.40
2023-07-04T01:55:53.585Z,18.41
2023-07-04T01:57:56.517Z,18.38
2023-07-04T02:00:00.727Z,18.36
2023-07-04T02:02:03.623Z,18.33
2023-07-04T02:04:06.800Z,18.33
2023-07-04T02:06:09.748Z,18.35
2023-07-04T02:08:13.595Z,18.33
2023-07-04T02:10:16.807Z,18.35
2023-07-04T02:12:19.966Z,18.31
2023-07-04T02:14:22.862Z,18.33
2023-07-04T02:16:27.550Z,18.34
2023-07-04T02:18:30.394Z,18.23
2023-07-04T02:20:33.322Z,18.27
2023-07-04T02:22:36.232Z,18.20
2023-07-04T02:24:39.113Z,18.28
2023-07-04T02:26:42.020Z,18.23
2023-07-04T02:28:44.866Z,18.33
2023-07-04T02:30:54.867Z,18.27
2023-07-04T02:32:59.494Z,18.29
2023-07-04T02:35:03.707Z,18.33
2023-07-04T02:37:08.227Z,18.23
2023-07-04T02:39:11.233Z,18.17
2023-07-04T02:41:14.491Z,18.13
2023-07-04T02:43:18.194Z,18.13
2023-07-04T02:45:21.139Z,18.08
2023-07-04T02:47:27.574Z,18.19
2023-07-04T02:49:36.457Z,18.14
2023-07-04T02:51:39.999Z,18.20
2023-07-04T02:53:42.930Z,18.17
2023-07-04T02:55:45.798Z,18.18
2023-07-04T02:57:48.758Z,18.13
2023-07-04T02:59:51.775Z,18.19
2023-07-04T03:01:55.071Z,18.13
2023-07-04T03:03:59.018Z,18.11
2023-07-04T03:06:03.592Z,18.12
2023-07-04T03:08:07.595Z,18.10
2023-07-04T03:10:11.001Z,18.13
2023-07-04T03:12:14.296Z,18.09
2023-07-04T03:14:17.200Z,18.10
2023-07-04T03:16:20.918Z,18.07
2023-07-04T03:18:24.231Z,18.03
2023-07-04T03:20:28.440Z,18.05
2023-07-04T03:22:32.988Z,18.05
2023-07-04T03:24:35.952Z,18.00
2023-07-04T03:26:41.909Z,17.99
2023-07-04T03:28:44.732Z,18.00
2023-07-04T03:30:48.902Z,18.01
2023-07-04T03:32:51.826Z,17.97
2023-07-04T03:34:56.584Z,17.94
2023-07-04T03:37:00.025Z,17.95
2023-07-04T03:39:05.022Z,17.99
2023-07-04T03:41:08.053Z,17.96
2023-07-04T03:43:10.896Z,17.95
2023-07-04T03:45:13.977Z,17.95
2023-07-04T03:47:16.894Z,17.93
2023-07-04T03:49:19.698Z,17.94
2023-07-04T03:51:22.526Z,17.96
2023-07-04T03:53:25.681Z,17.95
2023-07-04T03:55:29.871Z,17.95
2023-07-04T03:57:32.788Z,17.95
2023-07-04T03:59:35.651Z,17.97
2023-07-04T04:01:38.690Z,17.98
2023-07-04T04:03:41.692Z,17.96
2023-07-04T04:05:46.131Z,18.02
2023-07-04T04:07:49.953Z,18.35
2023-07-04T04:09:52.847Z,18.68
2023-07-04T04:11:57.073Z,18.98
2023-07-04T04:14:00.051Z,19.17
2023-07-04T04:16:03.124Z,19.28
2023-07-04T04:18:06.122Z,19.33
2023-07-04T04:20:13.162Z,19.36
2023-07-04T04:22:16.954Z,19.40
2023-07-04T04:24:19.788Z,19.44
2023-07-04T04:26:23.342Z,19.41
2023-07-04T04:28:27.976Z,19.24
2023-07-04T04:30:51.804Z,19.01
2023-07-04T04:32:54.921Z,18.88
2023-07-04T04:34:57.761Z,18.77
2023-07-04T04:37:00.633Z,18.68
2023-07-04T04:39:04.990Z,18.64
2023-07-04T04:41:09.470Z,18.60
2023-07-04T04:43:12.338Z,18.58
2023-07-04T04:45:16.556Z,18.59
2023-07-04T04:47:23.216Z,18.58
2023-07-04T04:49:26.024Z,18.57
2023-07-04T04:51:29.189Z,18.58
2023-07-04T04:53:32.321Z,18.60
2023-07-04T04:55:36.572Z,18.63
2023-07-04T04:57:39.745Z,18.66
2023-07-04T04:59:42.661Z,18.70
2023-07-04T05:01:47.224Z,18.75
2023-07-04T05:03:51.224Z,18.69
2023-07-04T05:05:54.063Z,18.72
2023-07-04T05:07:56.957Z,18.80
2023-07-04T05:10:00.165Z,18.84
2023-07-04T05:12:03.151Z,18.87
2023-07-04T05:14:08.677Z,18.92
2023-07-04T05:16:14.879Z,18.96
2023-07-04T05:18:19.133Z,19.00
2023-07-04T05:20:24.771Z,19.05
2023-07-04T05:22:27.617Z,19.09
2023-07-04T05:24:32.290Z,19.17
2023-07-04T05:26:35.331Z,19.21
2023-07-04T05:28:38.313Z,19.30
2023-07-04T05:30:41.094Z,19.32
2023-07-04T05:32:43.933Z,19.36
2023-07-04T05:34:50.323Z,19.43
2023-07-04T05:36:53.115Z,19.48
2023-07-04T05:39:00.905Z,19.53
2023-07-04T05:41:04.531Z,19.60
2023-07-04T05:43:07.376Z,19.64
2023-07-04T05:45:10.845Z,19.68
2023-07-04T05:47:13.741Z,19.71
2023-07-04T05:49:16.564Z,19.79
2023-07-04T05:51:22.031Z,19.87
2023-07-04T05:53:26.860Z,19.91
2023-07-04T05:55:31.587Z,19.91
2023-07-04T05:57:35.837Z,19.97
2023-07-04T05:59:38.663Z,20.03
2023-07-04T06:01:45.108Z,20.09
2023-07-04T06:03:48.089Z,20.13
2023-07-04T06:05:50.987Z,20.21
2023-07-04T06:07:55.166Z,20.25
2023-07-04T06:09:58.029Z,20.35
2023-07-04T06:12:00.840Z,20.38
2023-07-04T06:14:04.141Z,20.40
2023-07-04T06:16:07.167Z,20.43
2023-07-04T06:18:10.042Z,20.49
2023-07-04T06:20:14.098Z,20.52
2023-07-04T06:22:16.987Z,20.54
2023-07-04T06:24:21.923Z,20.62
2023-07-04T06:26:28.955Z,20.69
2023-07-04T06:28:32.090Z,20.75
2023-07-04T06:30:36.256Z,20.81
2023-07-04T06:32:39.201Z,20.86
2023-07-04T06:34:42.037Z,20.90
2023-07-04T06:36:49.444Z,20.96
2023-07-04T06:38:52.761Z,20.99
2023-07-04T06:41:02.378Z,21.06
2023-07-04T06:43:06.299Z,21.13
2023-07-04T06:45:09.771Z,21.17
2023-07-04T06:47:13.063Z,21.19
2023-07-04T06:49:16.001Z,21.23
2023-07-04T06:51:20.722Z,21.37
2023-07-04T06:53:23.613Z,21.40
2023-07-04T06:55:26.568Z,21.36
2023-07-04T06:57:30.726Z,21.38
2023-07-04T06:59:33.573Z,21.41
2023-07-04T07:01:40.132Z,21.46
2023-07-04T07:03:43.623Z,21.52
2023-07-04T07:05:46.578Z,21.60
2023-07-04T07:07:49.445Z,21.69
2023-07-04T07:09:52.335Z,21.71
2023-07-04T07:11:55.164Z,21.76
2023-07-04T07:13:59.346Z,21.81
2023-07-04T07:16:11.209Z,21.86
2023-07-04T07:18:14.104Z,21.83
2023-07-04T07:20:17.416Z,21.91
2023-07-04T07:22:20.422Z,22.01
2023-07-04T07:24:23.288Z,22.03
2023-07-04T07:26:28.450Z,22.07
2023-07-04T07:28:35.823Z,22.14
2023-07-04T07:30:40.427Z,22.21
2023-07-04T07:32:43.283Z,22.24
2023-07-04T07:34:46.183Z,22.28
2023-07-04T07:36:49.402Z,22.34
2023-07-04T07:38:54.096Z,22.45
2023-07-04T07:40:56.985Z,22.49
2023-07-04T07:42:59.768Z,22.59
2023-07-04T07:45:03.057Z,22.62
2023-07-04T07:47:07.578Z,22.71
2023-07-04T07:49:10.593Z,22.79
2023-07-04T07:51:13.914Z,22.78
2023-07-04T07:53:17.237Z,22.82
2023-07-04T07:55:20.261Z,23.00
2023-07-04T07:57:23.163Z,23.05
2023-07-04T07:59:26.003Z,23.16
2023-07-04T08:01:32.249Z,23.25
2023-07-04T08:03:36.536Z,23.25
2023-07-04T08:05:40.093Z,23.32
2023-07-04T08:07:42.897Z,23.37
2023-07-04T08:09:45.756Z,23.42
2023-07-04T08:11:52.623Z,23.48
2023-07-04T08:13:57.361Z,23.61
2023-07-04T08:16:00.285Z,23.66
2023-07-04T08:18:06.441Z,23.67
2023-07-04T08:20:12.288Z,23.70
2023-07-04T08:22:15.167Z,23.66
2023-07-04T08:24:18.928Z,23.69
2023-07-04T08:26:24.470Z,23.74
2023-07-04T08:28:27.764Z,23.79
2023-07-04T08:30:30.617Z,23.81
2023-07-04T08:32:34.981Z,23.86
2023-07-04T08:34:37.953Z,23.90
2023-07-04T08:36:43.107Z,23.88
2023-07-04T08:38:48.808Z,23.87
2023-07-04T08:40:52.254Z,23.92
2023-07-04T08:42:55.289Z,24.00
2023-07-04T08:44:58.409Z,23.92
2023-07-04T08:47:01.505Z,24.02
2023-07-04T08:49:05.702Z,24.06
2023-07-04T08:51:08.751Z,24.13
2023-07-04T08:53:18.185Z,24.18
2023-07-04T08:55:22.585Z,24.19
2023-07-04T08:57:31.825Z,24.08
2023-07-04T08:59:43.525Z,24.13
2023-07-04T09:02:02.154Z,24.28
2023-07-04T09:04:10.426Z,24.38
2023-07-04T09:06:19.017Z,24.43
2023-07-04T09:08:43.489Z,24.38
2023-07-04T09:10:48.737Z,24.36
2023-07-04T09:12:52.203Z,24.45
2023-07-04T09:15:02.773Z,24.50
2023-07-04T09:17:18.914Z,24.56
2023-07-04T09:19:22.020Z,24.44
2023-07-04T09:21:26.865Z,24.53
2023-07-04T09:23:31.963Z,24.60
2023-07-04T09:25:34.981Z,24.67
2023-07-04T09:27:37.810Z,24.76
2023-07-04T09:29:40.658Z,24.79
2023-07-04T09:31:46.319Z,24.84
2023-07-04T09:33:50.315Z,24.89
2023-07-04T09:35:53.485Z,24.94
2023-07-04T09:37:58.950Z,24.99
2023-07-04T09:40:05.552Z,24.97
2023-07-04T09:42:23.208Z,25.07
2023-07-04T09:44:34.881Z,24.98
2023-07-04T09:46:37.791Z,25.09
2023-07-04T09:48:41.226Z,25.14
2023-07-04T09:50:44.080Z,25.29
2023-07-04T09:52:46.979Z,25.28
2023-07-04T09:55:11.711Z,25.39
2023-07-04T09:57:21.429Z,25.37
2023-07-04T09:59:27.992Z,25.39
2023-07-04T10:01:31.697Z,25.38
2023-07-04T10:03:34.727Z,25.50
2023-07-04T10:05:38.517Z,25.52
2023-07-04T10:07:41.379Z,25.56
2023-07-04T10:09:52.392Z,25.32
2023-07-04T10:12:10.853Z,25.37
2023-07-04T10:14:15.317Z,25.51
2023-07-04T10:16:24.457Z,25.60
2023-07-04T10:18:30.094Z,25.69
2023-07-04T10:20:38.154Z,25.81
2023-07-04T10:22:49.144Z,25.89
2023-07-04T10:24:52.227Z,25.91
2023-07-04T10:27:01.028Z,25.89
2023-07-04T10:29:05.230Z,25.97
2023-07-04T10:31:15.665Z,25.99
2023-07-04T10:33:25.480Z,26.01
2023-07-04T10:35:32.282Z,25.85
2023-07-04T10:37:38.543Z,25.87
2023-07-04T10:39:41.615Z,25.87
2023-07-04T10:41:54.295Z,25.87
2023-07-04T10:44:03.599Z,25.85
2023-07-04T10:46:11.136Z,25.85
2023-07-04T10:48:16.852Z,25.84
2023-07-04T10:50:23.821Z,25.72
2023-07-04T10:52:33.314Z,25.77
2023-07-04T10:54:36.144Z,25.73
2023-07-04T10:56:41.618Z,25.70
2023-07-04T10:58:47.310Z,25.79
2023-07-04T11:00:56.501Z,25.94
2023-07-04T11:03:03.721Z,26.10
2023-07-04T11:05:12.501Z,26.13
2023-07-04T11:07:21.798Z,26.03
2023-07-04T11:09:24.704Z,26.02
2023-07-04T11:11:30.364Z,26.13
2023-07-04T11:13:34.975Z,26.11
2023-07-04T11:15:41.870Z,26.14
2023-07-04T11:17:48.015Z,26.16
2023-07-04T11:19:57.045Z,26.32
2023-07-04T11:22:16.216Z,26.29
2023-07-04T11:24:21.827Z,26.33
2023-07-04T11:26:50.896Z,26.36
2023-07-04T11:29:09.141Z,26.25
2023-07-04T11:31:19.763Z,26.23
2023-07-04T11:33:45.367Z,26.29
2023-07-04T11:35:50.395Z,26.29
2023-07-04T11:37:58.535Z,26.41
2023-07-04T11:40:06.221Z,26.43
2023-07-04T11:42:18.846Z,26.39
2023-07-04T11:44:27.481Z,26.37
2023-07-04T11:46:31.264Z,26.39
2023-07-04T11:48:36.592Z,26.38
2023-07-04T11:50:44.310Z,26.30
2023-07-04T11:52:57.279Z,26.31
2023-07-04T11:55:07.160Z,26.25
2023-07-04T11:57:16.200Z,26.38
2023-07-04T11:59:44.811Z,26.45
2023-07-04T12:02:36.050Z,26.59
2023-07-04T12:04:57.016Z,26.73
2023-07-04T12:07:04.855Z,26.86
2023-07-04T12:09:12.806Z,26.92
2023-07-04T12:11:22.870Z,26.94
2023-07-04T12:13:27.724Z,27.17
2023-07-04T12:15:32.653Z,27.26
2023-07-04T12:17:39.162Z,27.27
2023-07-04T12:19:42.307Z,27.18
2023-07-04T12:21:47.541Z,26.88
2023-07-04T12:23:52.166Z,26.72
2023-07-04T12:25:57.458Z,26.61
2023-07-04T12:28:03.881Z,26.58
2023-07-04T12:30:10.405Z,26.34
2023-07-04T12:32:19.350Z,26.44
2023-07-04T12:34:29.415Z,26.66
2023-07-04T12:36:38.663Z,26.79
2023-07-04T12:38:46.167Z,26.73
2023-07-04T12:40:51.130Z,26.55
2023-07-04T12:42:54.562Z,26.57
2023-07-04T12:44:58.115Z,26.53
2023-07-04T12:51:16.437Z,27.06
2023-07-04T12:53:20.646Z,27.19
2023-07-04T12:55:28.443Z,27.13
2023-07-04T12:57:33.813Z,26.93
2023-07-04T12:59:38.677Z,26.77
2023-07-04T13:01:44.254Z,26.64
2023-07-04T13:03:47.445Z,26.55
2023-07-04T13:05:53.233Z,26.76
2023-07-04T13:07:56.259Z,26.93
2023-07-04T13:10:01.734Z,27.09
2023-07-04T13:12:05.015Z,27.30
2023-07-04T13:14:11.723Z,27.13
2023-07-04T13:16:17.139Z,27.00
2023-07-04T13:18:33.311Z,26.75
2023-07-04T13:20:38.796Z,26.62
2023-07-04T13:27:08.566Z,26.35
2023-07-04T13:33:37.907Z,26.85
2023-07-04T13:35:42.252Z,27.04
2023-07-04T13:39:53.356Z,27.34
2023-07-04T13:41:58.994Z,27.18
2023-07-04T13:46:09.159Z,27.44
2023-07-04T13:48:12.372Z,27.61
2023-07-04T13:50:15.699Z,27.55
2023-07-04T13:52:20.530Z,27.56
2023-07-04T13:54:23.373Z,27.54
2023-07-04T13:56:26.785Z,27.67
2023-07-04T13:58:29.916Z,27.54
2023-07-04T14:00:37.942Z,27.71
2023-07-04T14:07:08.788Z,27.91
2023-07-04T14:09:11.723Z,28.10
2023-07-04T14:11:16.205Z,28.17
2023-07-04T14:13:19.074Z,28.15
2023-07-04T14:16:37.390Z,28.20
2023-07-04T14:19:56.880Z,28.20
2023-07-04T14:20:12.219Z,28.30
2023-07-04T14:22:15.592Z,28.51
2023-07-04T14:24:18.534Z,28.60
2023-07-04T14:26:23.757Z,28.48
2023-07-04T14:28:26.604Z,28.30
2023-07-04T14:30:29.521Z,28.37
2023-07-04T14:32:35.625Z,28.47
2023-07-04T14:34:38.505Z,28.52
2023-07-04T14:36:42.746Z,28.58
2023-07-04T14:38:45.593Z,28.50
2023-07-04T14:42:54.412Z,28.29
2023-07-04T14:44:57.217Z,28.18
2023-07-04T14:47:00.063Z,28.20
2023-07-04T14:49:03.274Z,27.96
2023-07-04T14:51:08.441Z,27.91
2023-07-04T14:53:12.598Z,27.77
2023-07-04T14:55:15.263Z,27.62
2023-07-04T14:57:18.160Z,27.61
2023-07-04T14:59:21.069Z,27.84
2023-07-04T15:01:24.599Z,28.12
2023-07-04T15:03:30.489Z,28.35
2023-07-04T15:05:33.383Z,28.31
2023-07-04T15:07:36.374Z,28.33
2023-07-04T15:09:40.877Z,28.43
2023-07-04T15:11:43.518Z,28.48
2023-07-04T15:13:47.366Z,28.51
2023-07-04T15:15:51.845Z,28.61
2023-07-04T15:17:54.960Z,28.69
2023-07-04T15:19:57.842Z,28.81
2023-07-04T15:22:00.954Z,28.88
2023-07-04T15:24:03.813Z,29.02
2023-07-04T15:28:14.383Z,29.14
2023-07-04T15:30:17.465Z,29.08
2023-07-04T15:32:20.364Z,29.02
2023-07-04T15:34:23.457Z,29.01
2023-07-04T15:36:26.514Z,28.93
2023-07-04T15:38:29.316Z,28.80
2023-07-04T15:40:32.422Z,28.68
2023-07-04T15:42:37.855Z,28.63
2023-07-04T15:44:40.710Z,28.54
2023-07-04T15:46:43.583Z,28.42
2023-07-04T15:48:47.553Z,28.48
2023-07-04T15:50:50.472Z,28.75
2023-07-04T15:52:53.290Z,28.87
2023-07-04T15:54:56.110Z,28.99
2023-07-04T15:56:58.928Z,29.18
2023-07-04T15:59:03.188Z,29.39
2023-07-04T16:01:07.271Z,29.48
2023-07-04T16:03:10.032Z,29.53
2023-07-04T16:05:13.508Z,29.48
2023-07-04T16:07:16.346Z,29.43
2023-07-04T16:09:19.199Z,29.24
2023-07-04T16:11:22.053Z,28.93
2023-07-04T16:13:25.297Z,28.80
2023-07-04T16:15:29.554Z,28.71
2023-07-04T16:17:32.482Z,28.61
2023-07-04T16:19:35.309Z,28.48
2023-07-04T16:21:38.456Z,28.33
2023-07-04T16:23:41.798Z,28.21
2023-07-04T16:25:47.263Z,28.12
2023-07-04T16:27:50.133Z,28.01
2023-07-04T16:29:53.037Z,27.87
2023-07-04T16:31:57.296Z,27.78
2023-07-04T16:34:00.356Z,27.76
2023-07-04T16:36:05.061Z,27.78
2023-07-04T16:38:07.921Z,27.76
2023-07-04T16:40:12.251Z,27.77
2023-07-04T16:42:15.036Z,27.69
2023-07-04T16:44:17.892Z,27.65
2023-07-04T16:46:20.713Z,27.63
2023-07-04T16:48:24.968Z,27.59
2023-07-04T16:50:32.191Z,27.42
2023-07-04T16:52:35.929Z,27.40
2023-07-04T16:54:38.841Z,27.38
2023-07-04T16:56:41.656Z,27.39
2023-07-04T16:58:44.449Z,27.41
2023-07-04T17:00:47.310Z,27.35
2023-07-04T17:02:51.441Z,27.41
2023-07-04T17:04:55.812Z,27.33
2023-07-04T17:06:58.602Z,27.30
2023-07-04T17:09:03.180Z,27.26
2023-07-04T17:11:06.899Z,27.25
2023-07-04T17:13:09.961Z,27.22
2023-07-04T17:15:12.884Z,27.16
2023-07-04T17:17:16.842Z,27.15
2023-07-04T17:19:19.705Z,27.10
2023-07-04T17:21:23.885Z,27.08
2023-07-04T17:23:26.548Z,27.02
2023-07-04T17:25:29.410Z,27.03
2023-07-04T17:27:32.298Z,27.06
2023-07-04T17:29:35.167Z,27.05
2023-07-04T17:31:38.219Z,27.06
2023-07-04T17:33:42.305Z,27.07
2023-07-04T17:35:55.069Z,26.98
2023-07-04T17:38:00.729Z,26.99
2023-07-04T17:40:03.618Z,26.97
2023-07-04T17:42:06.786Z,26.91
2023-07-04T17:44:09.584Z,26.87
2023-07-04T17:46:14.009Z,26.80
2023-07-04T17:48:16.827Z,26.81
2023-07-04T17:50:20.586Z,26.87
2023-07-04T17:52:23.615Z,26.70
2023-07-04T17:54:27.826Z,26.72
2023-07-04T17:56:30.558Z,26.52
2023-07-04T17:58:34.472Z,26.53
2023-07-04T18:00:37.309Z,26.52
2023-07-04T18:02:40.239Z,26.43
2023-07-04T18:04:43.784Z,26.49
2023-07-04T18:06:46.592Z,26.44
2023-07-04T18:08:50.855Z,26.41
2023-07-04T18:10:55.608Z,26.29
2023-07-04T18:12:58.747Z,26.22
2023-07-04T18:15:01.538Z,26.24
2023-07-04T18:17:04.746Z,26.13
2023-07-04T18:19:07.681Z,26.05
2023-07-04T18:21:14.790Z,26.02
2023-07-04T18:23:17.645Z,25.90
2023-07-04T18:25:20.517Z,25.82
2023-07-04T18:27:24.941Z,25.73
2023-07-04T18:29:27.910Z,25.65
2023-07-04T18:31:31.693Z,25.47
2023-07-04T18:33:35.360Z,25.33
2023-07-04T18:35:39.713Z,25.32
2023-07-04T18:37:42.432Z,25.23
2023-07-04T18:39:45.255Z,25.14
2023-07-04T18:41:48.224Z,25.13
2023-07-04T18:43:52.428Z,25.09
2023-07-04T18:45:55.197Z,25.01
2023-07-04T18:47:58.086Z,25.01
2023-07-04T18:50:01.046Z,25.05
2023-07-04T18:52:05.285Z,25.11
2023-07-04T18:54:09.411Z,24.95
2023-07-04T18:56:13.291Z,24.88
2023-07-04T18:58:16.550Z,24.91
2023-07-04T19:00:21.229Z,24.89
2023-07-04T19:02:24.426Z,24.73
2023-07-04T19:04:27.440Z,24.63
2023-07-04T19:06:32.415Z,24.64
2023-07-04T19:08:35.696Z,24.63
2023-07-04T19:10:45.157Z,24.65
2023-07-04T19:12:48.102Z,24.53
2023-07-04T19:14:52.884Z,24.55
2023-07-04T19:16:58.770Z,24.53
2023-07-04T19:19:02.193Z,24.51
2023-07-04T19:21:05.713Z,24.49
2023-07-04T19:23:13.144Z,24.46
2023-07-04T19:25:15.994Z,24.35
2023-07-04T19:27:21.137Z,24.33
2023-07-04T19:29:25.145Z,24.22
2023-07-04T19:31:34.002Z,24.32
2023-07-04T19:33:51.559Z,24.28
2023-07-04T19:36:03.852Z,24.29
2023-07-04T19:38:10.922Z,24.28
2023-07-04T19:40:15.315Z,24.31
2023-07-04T19:42:19.323Z,24.28
2023-07-04T19:44:22.200Z,24.27
2023-07-04T19:46:25.053Z,24.19
2023-07-04T19:48:28.844Z,24.08
2023-07-04T19:50:33.692Z,23.99
2023-07-04T19:52:36.575Z,23.97
2023-07-04T19:54:39.477Z,23.84
2023-07-04T19:56:42.724Z,23.74
2023-07-04T19:58:46.374Z,23.85
2023-07-04T20:00:50.519Z,23.87
2023-07-04T20:02:55.636Z,23.79
2023-07-04T20:04:58.740Z,23.74
2023-07-04T20:07:03.589Z,23.76
2023-07-04T20:09:06.857Z,23.64
2023-07-04T20:11:10.489Z,23.59
2023-07-04T20:13:13.367Z,23.61
2023-07-04T20:15:16.235Z,23.60
2023-07-04T20:17:19.221Z,23.59
2023-07-04T20:19:22.537Z,23.62
2023-07-04T20:21:25.571Z,23.63
2023-07-04T20:23:29.832Z,23.51
2023-07-04T20:25:33.348Z,23.53
2023-07-04T20:27:36.643Z,23.63
2023-07-04T20:29:39.463Z,23.69
2023-07-04T20:31:43.605Z,23.56
2023-07-04T20:33:46.572Z,23.60
2023-07-04T20:35:49.530Z,23.56
2023-07-04T20:37:52.320Z,23.57
2023-07-04T20:39:56.656Z,23.47
2023-07-04T20:42:00.608Z,23.39
2023-07-04T20:44:03.555Z,23.43
2023-07-04T20:46:07.014Z,23.28
2023-07-04T20:48:12.438Z,23.27
2023-07-04T20:50:16.874Z,23.26
2023-07-04T20:52:23.187Z,23.26
2023-07-04T20:54:26.591Z,23.29
2023-07-04T20:56:30.870Z,23.25
2023-07-04T20:58:33.601Z,23.06
2023-07-04T21:00:38.511Z,23.06
2023-07-04T21:02:42.170Z,23.14
2023-07-04T21:04:50.952Z,23.07
2023-07-04T21:06:54.554Z,23.00
2023-07-04T21:09:00.415Z,22.91
2023-07-04T21:11:06.887Z,22.98
2023-07-04T21:13:19.485Z,22.95
2023-07-04T21:15:22.492Z,22.87
2023-07-04T21:17:25.478Z,22.83
2023-07-04T21:19:28.915Z,22.80
2023-07-04T21:21:31.819Z,22.75
2023-07-04T21:23:35.191Z,22.66
2023-07-04T21:25:38.087Z,22.52
2023-07-04T21:27:40.974Z,22.43
2023-07-04T21:29:51.664Z,22.52
2023-07-04T21:31:54.592Z,22.40
2023-07-04T21:33:57.470Z,22.48
2023-07-04T21:36:01.123Z,22.54
2023-07-04T21:38:04.133Z,22.48
2023-07-04T21:40:08.612Z,22.39
2023-07-04T21:42:12.172Z,22.37
2023-07-04T21:44:15.078Z,22.35
2023-07-04T21:46:22.794Z,22.25
2023-07-04T21:48:27.561Z,22.14
2023-07-04T21:50:30.411Z,22.22
2023-07-04T21:52:33.488Z,22.15
2023-07-04T21:54:36.350Z,22.17
2023-07-04T21:56:39.271Z,22.17
2023-07-04T21:58:42.104Z,22.18
2023-07-04T22:00:46.596Z,22.12
2023-07-04T22:02:50.941Z,22.18
2023-07-04T22:04:53.705Z,21.98
2023-07-04T22:06:58.920Z,22.00
2023-07-04T22:09:02.120Z,22.04
2023-07-04T22:11:05.172Z,21.97
2023-07-04T22:13:08.683Z,21.95
2023-07-04T22:15:12.426Z,21.91
2023-07-04T22:17:15.351Z,21.87
2023-07-04T22:19:19.503Z,21.83
2023-07-04T22:21:22.337Z,21.80
2023-07-04T22:23:25.436Z,21.78
2023-07-04T22:25:28.454Z,21.78
2023-07-04T22:27:31.557Z,21.75
2023-07-04T22:29:34.380Z,21.75
2023-07-04T22:31:37.219Z,21.73
2023-07-04T22:33:43.724Z,21.73
2023-07-04T22:35:47.902Z,21.72
2023-07-04T22:37:50.992Z,21.63
2023-07-04T22:39:53.820Z,21.62
2023-07-04T22:42:00.851Z,21.67
2023-07-04T22:44:03.731Z,21.68
2023-07-04T22:46:06.578Z,21.70
2023-07-04T22:48:09.461Z,21.70
2023-07-04T22:50:12.409Z,21.70
2023-07-04T22:52:16.581Z,21.72
2023-07-04T22:54:19.498Z,21.71
2023-07-04T22:56:24.632Z,21.70
2023-07-04T22:58:27.658Z,21.66
2023-07-04T23:00:30.492Z,21.66
2023-07-04T23:02:33.380Z,21.64
2023-07-04T23:04:36.330Z,21.68
2023-07-04T23:06:39.155Z,21.67
2023-07-04T23:08:44.684Z,21.72
2023-07-04T23:10:47.670Z,21.66
2023-07-04T23:12:50.554Z,21.61
2023-07-04T23:14:53.383Z,21.60
2023-07-04T23:16:56.409Z,21.58
2023-07-04T23:18:59.306Z,21.59
2023-07-04T23:21:02.362Z,21.57
2023-07-04T23:23:05.236Z,21.54
2023-07-04T23:25:10.482Z,21.53
2023-07-04T23:27:13.351Z,21.51
2023-07-04T23:29:16.300Z,21.50
2023-07-04T23:31:19.406Z,21.51
2023-07-04T23:33:22.306Z,21.48
2023-07-04T23:35:25.121Z,21.49
2023-07-04T23:37:28.064Z,21.50
2023-07-04T23:39:30.867Z,21.52
2023-07-04T23:41:35.093Z,21.57
2023-07-04T23:43:37.922Z,21.54
2023-07-04T23:45:41.852Z,21.43
2023-07-04T23:47:44.745Z,21.42
2023-07-04T23:49:47.646Z,21.49
2023-07-04T23:51:50.545Z,21.45
2023-07-04T23:53:53.815Z,21.41
2023-07-04T23:55:56.688Z,21.42
2023-07-04T23:58:00.978Z,21.40
